createdAt,value
2023-01-01T00:01:23.697Z,12.08
2023-01-01T00:03:51.514Z,11.89
2023-01-01T00:06:19.422Z,12.06
2023-01-01T00:08:47.952Z,11.89
2023-01-01T00:11:15.870Z,11.69
2023-01-01T00:13:44.696Z,11.58
2023-01-01T00:16:14.170Z,11.43
2023-01-01T00:18:43.136Z,11.31
2023-01-01T00:21:13.266Z,11.16
2023-01-01T00:23:41.237Z,11.10
2023-01-01T00:26:11.061Z,11.14
2023-01-01T00:28:38.833Z,11.11
2023-01-01T00:31:08.404Z,11.00
2023-01-01T00:33:36.008Z,10.87
2023-01-01T00:36:08.733Z,10.88
2023-01-01T00:38:37.208Z,10.80
2023-01-01T00:41:05.136Z,10.71
2023-01-01T00:43:33.200Z,10.68
2023-01-01T00:46:00.932Z,10.90
2023-01-01T00:48:28.669Z,11.21
2023-01-01T00:50:56.223Z,11.34
2023-01-01T00:53:25.429Z,11.47
2023-01-01T00:55:53.325Z,11.23
2023-01-01T00:58:20.981Z,11.06
2023-01-01T01:00:48.924Z,10.80
2023-01-01T01:03:28.784Z,10.69
2023-01-01T01:05:57.934Z,10.58
2023-01-01T01:08:30.941Z,10.47
2023-01-01T01:11:05.123Z,10.34
2023-01-01T01:13:32.958Z,10.26
2023-01-01T01:16:00.603Z,10.27
2023-01-01T01:18:28.427Z,10.22
2023-01-01T01:20:56.087Z,10.24
2023-01-01T01:23:23.713Z,10.20
2023-01-01T01:25:52.667Z,10.20
2023-01-01T01:28:20.271Z,10.16
2023-01-01T01:30:47.936Z,10.17
2023-01-01T01:33:15.497Z,10.10
2023-01-01T01:35:43.510Z,10.05
2023-01-01T01:38:11.869Z,10.00
2023-01-01T01:40:43.511Z,9.95
2023-01-01T01:43:22.833Z,9.93
2023-01-01T01:45:51.206Z,9.90
2023-01-01T01:48:19.189Z,9.88
2023-01-01T01:50:50.026Z,9.85
2023-01-01T01:53:24.621Z,9.85
2023-01-01T01:55:56.773Z,9.81
2023-01-01T01:58:27.200Z,9.68
2023-01-01T02:00:55.447Z,9.71
2023-01-01T02:03:28.076Z,9.64
2023-01-01T02:05:55.792Z,9.58
2023-01-01T02:08:24.832Z,9.57
2023-01-01T02:10:52.895Z,9.56
2023-01-01T02:13:20.855Z,9.57
2023-01-01T02:15:55.466Z,9.59
2023-01-01T02:18:29.701Z,9.58
2023-01-01T02:21:04.387Z,9.56
2023-01-01T02:23:44.654Z,9.50
2023-01-01T02:26:39.375Z,9.50
2023-01-01T02:29:18.488Z,9.57
2023-01-01T02:31:51.818Z,9.53
2023-01-01T02:34:24.220Z,9.57
2023-01-01T02:36:55.433Z,9.51
2023-01-01T02:39:28.625Z,9.50
2023-01-01T02:41:58.783Z,9.57
2023-01-01T02:44:31.452Z,9.61
2023-01-01T02:47:07.536Z,9.65
2023-01-01T02:49:38.904Z,9.65
2023-01-01T02:52:12.294Z,9.66
2023-01-01T02:54:45.059Z,10.39
2023-01-01T02:57:28.072Z,10.14
2023-01-01T03:00:20.999Z,10.01
2023-01-01T03:03:02.430Z,9.80
2023-01-01T03:05:35.083Z,9.73
2023-01-01T03:08:09.870Z,9.71
2023-01-01T03:10:46.142Z,9.73
2023-01-01T03:13:21.587Z,9.91
2023-01-01T03:15:59.782Z,9.94
2023-01-01T03:18:34.578Z,9.87
2023-01-01T03:21:05.296Z,9.78
2023-01-01T03:23:37.252Z,9.74
2023-01-01T03:26:09.393Z,9.59
2023-01-01T03:28:41.743Z,9.57
2023-01-01T03:31:11.842Z,9.61
2023-01-01T03:33:42.256Z,9.56
2023-01-01T03:36:14.418Z,9.58
2023-01-01T03:38:46.177Z,9.67
2023-01-01T03:41:18.466Z,9.59
2023-01-01T03:43:52.826Z,9.59
2023-01-01T03:46:25.974Z,9.54
2023-01-01T03:49:03.392Z,9.51
2023-01-01T03:51:43.551Z,9.50
2023-01-01T03:54:21.425Z,9.49
2023-01-01T03:56:57.973Z,9.46
2023-01-01T03:59:31.912Z,9.49
2023-01-01T04:02:04.996Z,9.48
2023-01-01T04:04:32.881Z,9.61
2023-01-01T04:07:14.133Z,9.63
2023-01-01T04:09:48.024Z,9.58
2023-01-01T04:12:17.015Z,9.40
2023-01-01T04:14:44.865Z,9.33
2023-01-01T04:17:14.113Z,9.31
2023-01-01T04:19:41.690Z,9.26
2023-01-01T04:22:09.904Z,9.24
2023-01-01T04:24:37.534Z,9.21
2023-01-01T04:27:05.257Z,9.23
2023-01-01T04:29:33.492Z,9.26
2023-01-01T04:32:01.067Z,9.21
2023-01-01T04:34:30.018Z,9.13
2023-01-01T04:36:57.599Z,9.07
2023-01-01T04:39:25.189Z,9.02
2023-01-01T04:41:53.808Z,8.98
2023-01-01T04:44:21.427Z,8.94
2023-01-01T04:46:48.980Z,8.86
2023-01-01T04:49:16.574Z,8.84
2023-01-01T04:51:45.457Z,8.77
2023-01-01T04:54:13.028Z,8.77
2023-01-01T04:56:40.655Z,8.74
2023-01-01T04:59:08.432Z,8.73
2023-01-01T05:01:36.061Z,8.74
2023-01-01T05:04:03.960Z,8.68
2023-01-01T05:06:31.583Z,8.68
2023-01-01T05:09:01.177Z,8.66
2023-01-01T05:11:30.482Z,8.61
2023-01-01T05:14:00.123Z,8.53
2023-01-01T05:16:29.576Z,8.47
2023-01-01T05:18:57.744Z,8.59
2023-01-01T05:21:27.428Z,8.62
2023-01-01T05:23:56.271Z,8.67
2023-01-01T05:26:28.059Z,8.60
2023-01-01T05:28:56.618Z,8.66
2023-01-01T05:31:26.207Z,8.75
2023-01-01T05:33:53.873Z,8.79
2023-01-01T05:36:23.400Z,8.91
2023-01-01T05:38:51.542Z,8.99
2023-01-01T05:41:21.046Z,9.00
2023-01-01T05:43:51.471Z,8.97
2023-01-01T05:46:21.451Z,8.97
2023-01-01T05:48:49.857Z,8.94
2023-01-01T05:51:19.052Z,9.01
2023-01-01T05:53:46.838Z,9.04
2023-01-01T05:56:15.627Z,9.05
2023-01-01T05:58:44.086Z,9.06
2023-01-01T06:01:15.121Z,9.03
2023-01-01T06:03:43.859Z,9.13
2023-01-01T06:06:13.944Z,9.26
2023-01-01T06:08:42.033Z,9.55
2023-01-01T06:11:12.740Z,9.68
2023-01-01T06:13:40.334Z,9.82
2023-01-01T06:16:08.813Z,9.86
2023-01-01T06:18:38.177Z,9.77
2023-01-01T06:21:07.333Z,9.78
2023-01-01T06:23:35.225Z,9.97
2023-01-01T06:26:08.236Z,9.94
2023-01-01T06:28:36.055Z,9.86
2023-01-01T06:31:04.799Z,9.70
2023-01-01T06:33:32.872Z,9.72
2023-01-01T06:36:03.421Z,9.66
2023-01-01T06:38:32.252Z,9.64
2023-01-01T06:41:01.604Z,9.70
2023-01-01T06:43:31.505Z,9.62
2023-01-01T06:46:04.451Z,9.54
2023-01-01T06:48:34.391Z,9.40
2023-01-01T06:51:08.434Z,9.46
2023-01-01T06:53:36.794Z,9.45
2023-01-01T06:56:04.914Z,9.33
2023-01-01T06:58:32.658Z,9.30
2023-01-01T07:01:08.769Z,9.23
2023-01-01T07:03:37.275Z,9.19
2023-01-01T07:06:06.988Z,9.10
2023-01-01T07:08:34.595Z,9.04
2023-01-01T07:11:02.450Z,9.01
2023-01-01T07:13:31.475Z,8.96
2023-01-01T07:16:00.608Z,8.95
2023-01-01T07:18:28.662Z,9.19
2023-01-01T07:20:58.241Z,9.22
2023-01-01T07:23:28.982Z,9.41
2023-01-01T07:25:57.411Z,9.57
2023-01-01T07:28:26.434Z,9.58
2023-01-01T07:30:54.564Z,9.64
2023-01-01T07:33:24.516Z,9.74
2023-01-01T07:35:52.201Z,10.01
2023-01-01T07:38:19.793Z,10.09
2023-01-01T07:40:48.730Z,10.50
2023-01-01T07:43:16.249Z,10.64
2023-01-01T07:45:43.809Z,10.85
2023-01-01T07:48:15.889Z,10.80
2023-01-01T07:50:44.528Z,10.68
2023-01-01T07:53:13.019Z,10.62
2023-01-01T07:55:40.639Z,10.55
2023-01-01T07:58:09.848Z,10.47
2023-01-01T08:00:37.619Z,10.33
2023-01-01T08:03:06.880Z,10.26
2023-01-01T08:05:35.791Z,10.18
2023-01-01T08:08:03.387Z,10.08
2023-01-01T08:10:31.980Z,9.99
2023-01-01T08:13:03.082Z,9.83
2023-01-01T08:15:32.150Z,9.77
2023-01-01T08:18:00.466Z,9.79
2023-01-01T08:20:29.395Z,9.80
2023-01-01T08:23:01.443Z,9.83
2023-01-01T08:25:32.405Z,9.90
2023-01-01T08:28:00.010Z,9.90
2023-01-01T08:30:27.871Z,9.95
2023-01-01T08:32:56.894Z,10.05
2023-01-01T08:35:24.452Z,10.10
2023-01-01T08:37:52.135Z,10.15
2023-01-01T08:40:19.650Z,10.23
2023-01-01T08:42:47.236Z,10.29
2023-01-01T08:45:14.908Z,10.34
2023-01-01T08:47:42.450Z,10.44
2023-01-01T08:50:11.611Z,10.52
2023-01-01T08:52:39.202Z,10.62
2023-01-01T08:55:07.570Z,10.68
2023-01-01T08:57:35.156Z,10.83
2023-01-01T09:00:02.804Z,10.93
2023-01-01T09:02:32.188Z,11.04
2023-01-01T09:04:59.888Z,11.11
2023-01-01T09:07:28.756Z,11.26
2023-01-01T09:09:56.369Z,11.43
2023-01-01T09:12:23.987Z,11.52
2023-01-01T09:14:51.612Z,11.58
2023-01-01T09:17:19.329Z,11.68
2023-01-01T09:19:46.862Z,11.78
2023-01-01T09:22:14.596Z,11.93
2023-01-01T09:24:43.473Z,12.11
2023-01-01T09:27:11.102Z,12.48
2023-01-01T09:29:38.683Z,12.72
2023-01-01T09:32:06.332Z,13.03
2023-01-01T09:34:34.042Z,13.32
2023-01-01T09:37:01.744Z,13.96
2023-01-01T09:39:30.147Z,14.48
2023-01-01T09:42:23.726Z,14.97
2023-01-01T09:45:02.082Z,15.33
2023-01-01T09:47:33.762Z,15.81
2023-01-01T09:50:06.465Z,16.06
2023-01-01T09:52:46.720Z,16.24
2023-01-01T09:55:24.511Z,16.47
2023-01-01T09:57:53.780Z,16.64
2023-01-01T10:00:21.611Z,16.93
2023-01-01T10:03:02.424Z,17.09
2023-01-01T10:05:38.488Z,17.29
2023-01-01T10:08:18.247Z,17.38
2023-01-01T10:10:54.710Z,17.60
2023-01-01T10:13:29.735Z,17.71
2023-01-01T10:16:00.464Z,17.85
2023-01-01T10:18:33.350Z,17.94
2023-01-01T10:21:08.581Z,18.06
2023-01-01T10:23:42.029Z,18.12
2023-01-01T10:26:14.422Z,18.21
2023-01-01T10:28:52.916Z,18.28
2023-01-01T10:31:27.120Z,18.30
2023-01-01T10:33:54.813Z,18.40
2023-01-01T10:36:22.374Z,18.30
2023-01-01T10:38:51.699Z,18.35
2023-01-01T10:41:20.357Z,18.43
2023-01-01T10:43:50.386Z,18.38
2023-01-01T10:46:29.506Z,18.40
2023-01-01T10:49:10.222Z,18.51
2023-01-01T10:51:39.326Z,18.46
2023-01-01T10:54:07.353Z,18.66
2023-01-01T10:56:43.744Z,18.57
2023-01-01T10:59:35.406Z,18.83
2023-01-01T11:02:21.895Z,18.83
2023-01-01T11:04:51.276Z,18.73
2023-01-01T11:07:29.263Z,18.87
2023-01-01T11:10:04.017Z,18.95
2023-01-01T11:13:04.121Z,18.74
2023-01-01T11:15:35.864Z,19.11
2023-01-01T11:18:05.587Z,19.50
2023-01-01T11:20:34.509Z,19.87
2023-01-01T11:23:19.606Z,19.85
2023-01-01T11:26:02.792Z,19.81
2023-01-01T11:28:31.699Z,20.00
2023-01-01T11:31:14.140Z,20.03
2023-01-01T11:33:46.691Z,20.00
2023-01-01T11:36:23.182Z,20.11
2023-01-01T11:39:03.849Z,20.13
2023-01-01T11:41:42.359Z,20.27
2023-01-01T11:44:12.775Z,20.11
2023-01-01T11:46:41.722Z,19.94
2023-01-01T11:49:15.983Z,20.24
2023-01-01T11:51:43.971Z,20.15
2023-01-01T11:54:23.945Z,20.46
2023-01-01T11:56:55.687Z,20.32
2023-01-01T11:59:28.722Z,20.42
2023-01-01T12:02:03.076Z,20.62
2023-01-01T12:04:39.065Z,20.49
2023-01-01T12:07:09.450Z,20.66
2023-01-01T12:09:43.370Z,20.87
2023-01-01T12:12:19.279Z,20.87
2023-01-01T12:14:53.554Z,21.20
2023-01-01T12:17:25.525Z,21.25
2023-01-01T12:19:59.352Z,21.37
2023-01-01T12:22:27.484Z,21.01
2023-01-01T12:24:55.886Z,20.91
2023-01-01T12:27:37.399Z,20.13
2023-01-01T12:30:13.677Z,20.29
2023-01-01T12:33:12.614Z,20.62
2023-01-01T12:36:12.397Z,20.90
2023-01-01T12:39:10.360Z,21.05
2023-01-01T12:41:50.042Z,20.98
2023-01-01T12:44:28.854Z,20.96
2023-01-01T12:47:04.215Z,21.32
2023-01-01T12:49:47.443Z,21.36
2023-01-01T12:52:27.320Z,21.46
2023-01-01T12:55:47.859Z,20.80
2023-01-01T12:58:21.764Z,21.03
2023-01-01T13:00:55.944Z,21.18
2023-01-01T13:03:28.786Z,21.27
2023-01-01T13:05:59.857Z,21.39
2023-01-01T13:08:27.429Z,21.17
2023-01-01T13:10:59.379Z,21.27
2023-01-01T13:13:27.514Z,21.38
2023-01-01T13:15:56.695Z,21.51
2023-01-01T13:18:35.183Z,21.50
2023-01-01T13:21:07.509Z,21.95
2023-01-01T13:23:46.239Z,22.40
2023-01-01T13:26:36.357Z,22.28
2023-01-01T13:29:43.628Z,22.13
2023-01-01T13:32:14.038Z,22.38
2023-01-01T13:35:17.102Z,22.56
2023-01-01T13:37:47.863Z,22.54
2023-01-01T13:40:50.075Z,22.38
2023-01-01T13:43:30.147Z,22.22
2023-01-01T13:46:11.867Z,22.00
2023-01-01T13:49:07.111Z,21.97
2023-01-01T13:52:08.967Z,21.79
2023-01-01T13:55:23.043Z,21.55
2023-01-01T13:58:19.927Z,21.40
2023-01-01T14:01:07.087Z,21.20
2023-01-01T14:03:42.901Z,21.04
2023-01-01T14:06:13.491Z,20.83
2023-01-01T14:08:41.244Z,20.57
2023-01-01T14:11:20.903Z,20.37
2023-01-01T14:13:49.263Z,20.15
2023-01-01T14:16:17.157Z,19.97
2023-01-01T14:18:47.585Z,19.81
2023-01-01T14:21:17.062Z,19.69
2023-01-01T14:23:46.551Z,19.54
2023-01-01T14:26:18.848Z,19.44
2023-01-01T14:28:48.390Z,19.25
2023-01-01T14:31:19.580Z,19.18
2023-01-01T14:33:47.867Z,19.06
2023-01-01T14:36:19.201Z,18.95
2023-01-01T14:38:48.839Z,18.86
2023-01-01T14:41:21.939Z,18.80
2023-01-01T14:43:53.466Z,18.69
2023-01-01T14:46:23.217Z,18.61
2023-01-01T14:48:54.186Z,18.55
2023-01-01T14:51:24.400Z,18.44
2023-01-01T14:53:53.559Z,18.39
2023-01-01T14:56:26.967Z,18.04
2023-01-01T14:58:58.618Z,17.95
2023-01-01T15:01:27.700Z,17.93
2023-01-01T15:03:57.636Z,17.91
2023-01-01T15:06:25.988Z,17.79
2023-01-01T15:08:54.292Z,17.67
2023-01-01T15:11:28.574Z,17.56
2023-01-01T15:14:01.170Z,17.41
2023-01-01T15:16:34.728Z,17.20
2023-01-01T15:19:18.389Z,16.99
2023-01-01T15:21:46.839Z,16.87
2023-01-01T15:24:16.654Z,16.80
2023-01-01T15:26:49.831Z,16.77
2023-01-01T15:29:27.314Z,16.74
2023-01-01T15:31:57.472Z,16.63
2023-01-01T15:34:28.414Z,16.59
2023-01-01T15:36:57.861Z,16.49
2023-01-01T15:39:33.692Z,16.35
2023-01-01T15:42:01.549Z,16.21
2023-01-01T15:44:33.415Z,16.10
2023-01-01T15:47:07.214Z,15.86
2023-01-01T15:49:34.842Z,15.71
2023-01-01T15:52:05.480Z,15.58
2023-01-01T15:54:37.748Z,15.46
2023-01-01T15:57:18.187Z,15.27
2023-01-01T15:59:47.749Z,15.12
2023-01-01T16:02:20.881Z,14.93
2023-01-01T16:04:51.153Z,14.81
2023-01-01T16:07:23.079Z,14.68
2023-01-01T16:09:57.097Z,14.53
2023-01-01T16:12:25.603Z,14.40
2023-01-01T16:14:54.560Z,14.24
2023-01-01T16:17:22.356Z,14.07
2023-01-01T16:19:51.500Z,13.91
2023-01-01T16:22:20.334Z,13.77
2023-01-01T16:24:48.036Z,13.64
2023-01-01T16:27:16.041Z,13.53
2023-01-01T16:29:44.877Z,13.42
2023-01-01T16:32:18.894Z,13.38
2023-01-01T16:34:46.754Z,13.28
2023-01-01T16:37:14.381Z,13.18
2023-01-01T16:39:42.001Z,13.04
2023-01-01T16:42:12.909Z,12.98
2023-01-01T16:44:41.911Z,12.89
2023-01-01T16:47:09.716Z,12.83
2023-01-01T16:49:38.577Z,12.73
2023-01-01T16:52:06.194Z,12.69
2023-01-01T16:54:34.959Z,12.58
2023-01-01T16:57:02.611Z,12.54
2023-01-01T16:59:30.278Z,12.45
2023-01-01T17:01:58.105Z,12.33
2023-01-01T17:04:26.337Z,12.26
2023-01-01T17:06:56.001Z,12.18
2023-01-01T17:09:23.925Z,12.10
2023-01-01T17:11:51.494Z,12.03
2023-01-01T17:14:19.047Z,11.97
2023-01-01T17:16:46.653Z,11.88
2023-01-01T17:19:16.111Z,11.81
2023-01-01T17:21:45.292Z,11.72
2023-01-01T17:24:14.498Z,11.68
2023-01-01T17:26:42.121Z,11.61
2023-01-01T17:29:09.837Z,11.52
2023-01-01T17:31:37.427Z,11.46
2023-01-01T17:34:05.354Z,11.41
2023-01-01T17:36:32.977Z,11.33
2023-01-01T17:39:00.580Z,11.29
2023-01-01T17:41:29.575Z,11.23
2023-01-01T17:43:58.147Z,11.19
2023-01-01T17:46:28.348Z,11.14
2023-01-01T17:48:56.808Z,11.07
2023-01-01T17:51:25.066Z,11.06
2023-01-01T17:53:53.539Z,11.03
2023-01-01T17:56:23.071Z,11.06
2023-01-01T17:58:53.856Z,11.09
2023-01-01T18:01:30.584Z,11.05
2023-01-01T18:04:01.503Z,11.00
2023-01-01T18:06:30.895Z,10.93
2023-01-01T18:08:59.946Z,10.93
2023-01-01T18:11:29.515Z,10.89
2023-01-01T18:13:59.535Z,10.83
2023-01-01T18:16:28.965Z,10.78
2023-01-01T18:18:57.027Z,10.74
2023-01-01T18:21:24.969Z,10.69
2023-01-01T18:23:54.514Z,10.69
2023-01-01T18:26:23.576Z,10.65
2023-01-01T18:28:52.634Z,10.63
2023-01-01T18:31:23.025Z,10.60
2023-01-01T18:33:51.039Z,10.57
2023-01-01T18:36:21.684Z,10.51
2023-01-01T18:38:56.997Z,10.50
2023-01-01T18:42:02.042Z,10.49
2023-01-01T18:44:31.533Z,10.47
2023-01-01T18:47:08.716Z,10.48
2023-01-01T18:49:37.701Z,10.48
2023-01-01T18:52:15.026Z,10.46
2023-01-01T18:54:42.887Z,10.43
2023-01-01T18:57:16.631Z,10.39
2023-01-01T18:59:44.244Z,10.46
2023-01-01T19:02:28.171Z,10.54
2023-01-01T19:04:58.555Z,10.55
2023-01-01T19:07:26.113Z,10.56
2023-01-01T19:09:58.901Z,10.48
2023-01-01T19:12:28.431Z,10.38
2023-01-01T19:14:56.362Z,10.31
2023-01-01T19:17:25.313Z,10.24
2023-01-01T19:19:53.296Z,10.15
2023-01-01T19:22:29.518Z,10.06
2023-01-01T19:24:57.477Z,10.01
2023-01-01T19:27:27.057Z,9.99
2023-01-01T19:29:54.683Z,9.91
2023-01-01T19:32:22.253Z,9.85
2023-01-01T19:34:51.155Z,9.83
2023-01-01T19:37:18.757Z,9.83
2023-01-01T19:39:46.436Z,9.83
2023-01-01T19:42:13.933Z,9.82
2023-01-01T19:44:41.929Z,9.81
2023-01-01T19:47:10.495Z,9.76
2023-01-01T19:49:38.098Z,9.71
2023-01-01T19:52:07.269Z,9.66
2023-01-01T19:54:35.157Z,9.62
2023-01-01T19:57:02.751Z,9.60
2023-01-01T19:59:33.304Z,9.54
2023-01-01T20:04:50.052Z,9.41
2023-01-01T20:07:19.387Z,9.40
2023-01-01T20:09:46.953Z,9.39
2023-01-01T20:12:14.560Z,9.38
2023-01-01T20:14:42.202Z,9.34
2023-01-01T20:17:09.786Z,9.36
2023-01-01T20:19:38.962Z,9.33
2023-01-01T20:22:13.767Z,9.34
2023-01-01T20:24:44.785Z,9.33
2023-01-01T20:27:13.459Z,9.33
2023-01-01T20:29:41.706Z,9.34
2023-01-01T20:32:12.400Z,9.34
2023-01-01T20:34:40.472Z,9.32
2023-01-01T20:37:26.236Z,9.26
2023-01-01T20:39:55.454Z,9.18
2023-01-01T20:42:22.998Z,9.12
2023-01-01T20:44:50.620Z,9.14
2023-01-01T20:47:18.153Z,9.10
2023-01-01T20:49:45.845Z,9.05
2023-01-01T20:52:13.469Z,9.00
2023-01-01T20:54:41.061Z,8.99
2023-01-01T20:57:10.057Z,8.99
2023-01-01T20:59:38.571Z,8.99
2023-01-01T21:02:08.130Z,8.99
2023-01-01T21:04:38.168Z,8.99
2023-01-01T21:07:06.636Z,8.97
2023-01-01T21:09:34.245Z,8.96
2023-01-01T21:12:02.067Z,8.92
2023-01-01T21:14:31.000Z,8.87
2023-01-01T21:16:58.740Z,8.87
2023-01-01T21:19:27.509Z,8.92
2023-01-01T21:21:57.859Z,8.88
2023-01-01T21:24:27.921Z,8.86
2023-01-01T21:27:01.201Z,8.85
2023-01-01T21:29:33.792Z,8.85
2023-01-01T21:32:19.869Z,8.76
2023-01-01T21:34:48.981Z,8.67
2023-01-01T21:37:42.340Z,8.63
2023-01-01T21:40:33.941Z,8.63
2023-01-01T21:43:33.231Z,8.59
2023-01-01T21:46:16.081Z,8.53
2023-01-01T21:48:52.885Z,8.46
2023-01-01T21:51:24.393Z,8.42
2023-01-01T21:53:52.603Z,8.40
2023-01-01T21:56:32.334Z,8.35
2023-01-01T21:59:29.658Z,8.28
2023-01-01T22:02:26.098Z,8.28
2023-01-01T22:04:53.887Z,8.21
2023-01-01T22:10:22.561Z,8.15
2023-01-01T22:12:53.274Z,8.11
2023-01-01T22:15:29.791Z,8.07
2023-01-01T22:18:15.178Z,8.03
2023-01-01T22:20:44.133Z,8.02
2023-01-01T22:23:24.085Z,7.99
2023-01-01T22:25:52.411Z,7.97
2023-01-01T22:28:23.434Z,7.91
2023-01-01T22:30:54.608Z,7.88
2023-01-01T22:33:28.388Z,7.85
2023-01-01T22:35:57.595Z,7.81
2023-01-01T22:38:32.526Z,7.79
2023-01-01T22:41:00.683Z,7.79
2023-01-01T22:43:32.512Z,7.80
2023-01-01T22:46:05.532Z,7.81
2023-01-01T22:48:38.607Z,7.86
2023-01-01T22:51:09.204Z,7.95
2023-01-01T22:53:36.723Z,8.02
2023-01-01T22:56:04.454Z,8.07
2023-01-01T22:58:32.021Z,8.11
2023-01-01T23:00:59.571Z,8.14
2023-01-01T23:03:27.265Z,8.14
2023-01-01T23:05:56.279Z,8.17
2023-01-01T23:08:24.898Z,8.20
2023-01-01T23:10:53.257Z,8.18
2023-01-01T23:13:38.632Z,8.17
2023-01-01T23:16:06.224Z,8.06
2023-01-01T23:18:35.301Z,8.08
2023-01-01T23:21:08.266Z,8.08
2023-01-01T23:23:36.685Z,8.08
2023-01-01T23:26:04.959Z,8.10
2023-01-01T23:28:32.776Z,8.14
2023-01-01T23:31:02.849Z,8.15
2023-01-01T23:33:31.193Z,8.11
2023-01-01T23:35:59.244Z,8.15
2023-01-01T23:38:28.796Z,8.21
2023-01-01T23:40:56.681Z,8.21
2023-01-01T23:43:24.217Z,8.17
2023-01-01T23:45:52.247Z,8.21
2023-01-01T23:48:20.576Z,8.22
2023-01-01T23:50:48.534Z,8.28
2023-01-01T23:53:16.166Z,8.34
2023-01-01T23:55:45.493Z,8.41
2023-01-01T23:58:13.021Z,8.49
